Time;durP1;ratioP1;P1;durP2;ratioP2;P2;SDS_P1;SDS_P2;PMS_P1;PMS_P2;Temp;Humidity;BMP_temperature;BMP_pressure;BME280_temperature;BME280_humidity;BME280_pressure;Samples;Min_cycle;Max_cycle;Signal;HPM_P1;HPM_P2
2022/03/21 00:02:31;;;;;;;51.42;20.30;;;;;;;;;;6243442;28;20043;-64
2022/03/21 00:05:32;;;;;;;50.47;22.85;;;;;;;;;;6243324;28;20048;-64
2022/03/21 00:08:33;;;;;;;48.85;21.30;;;;;;;;;;6237253;28;20057;-64
2022/03/21 00:11:34;;;;;;;42.53;19.60;;;;;;;;;;6233949;28;20029;-64
2022/03/21 00:14:34;;;;;;;45.20;22.35;;;;;;;;;;6243503;28;20025;-64
2022/03/21 00:17:35;;;;;;;56.17;21.60;;;;;;;;;;6243447;28;20513;-64
2022/03/21 00:20:36;;;;;;;50.58;20.98;;;;;;;;;;6243526;28;20084;-64
2022/03/21 00:23:36;;;;;;;46.28;20.02;;;;;;;;;;6243590;28;20025;-64
2022/03/21 00:26:36;;;;;;;43.30;18.52;;;;;;;;;;6243230;28;20093;-64
2022/03/21 00:29:36;;;;;;;43.60;21.25;;;;;;;;;;6241168;28;20033;-64
2022/03/21 00:32:37;;;;;;;47.78;19.85;;;;;;;;;;6242850;28;20064;-64
2022/03/21 00:35:38;;;;;;;39.97;20.42;;;;;;;;;;6243381;28;20057;-64
2022/03/21 00:38:38;;;;;;;41.65;19.17;;;;;;;;;;6243037;28;20033;-64
2022/03/21 00:41:40;;;;;;;44.88;20.27;;;;;;;;;;6240226;28;20036;-64
2022/03/21 00:44:40;;;;;;;41.38;18.13;;;;;;;;;;6242918;28;20013;-64
2022/03/21 00:47:41;;;;;;;50.47;21.42;;;;;;;;;;6242894;28;20076;-64
2022/03/21 00:50:41;;;;;;;36.67;16.00;;;;;;;;;;6242465;28;20388;-65
2022/03/21 00:53:41;;;;;;;33.50;16.35;;;;;;;;;;6242151;28;20145;-64
2022/03/21 00:56:42;;;;;;;31.25;15.57;;;;;;;;;;6253907;28;20025;-64
2022/03/21 00:59:42;;;;;;;38.40;17.83;;;;;;;;;;6272640;28;20115;-64
2022/03/21 01:02:43;;;;;;;39.97;19.65;;;;;;;;;;6247989;28;20075;-64
2022/03/21 01:05:43;;;;;;;36.28;17.85;;;;;;;;;;6247676;28;20113;-64
2022/03/21 01:08:43;;;;;;;45.63;21.38;;;;;;;;;;6240105;28;20494;-64
2022/03/21 01:11:44;;;;;;;32.22;17.80;;;;;;;;;;6232075;28;20020;-64
2022/03/21 01:14:44;;;;;;;43.03;18.55;;;;;;;;;;6247783;28;20465;-64
2022/03/21 01:17:44;;;;;;;48.25;18.63;;;;;;;;;;6247278;28;20385;-64
2022/03/21 01:20:45;;;;;;;44.92;20.67;;;;;;;;;;6247585;28;20026;-64
2022/03/21 01:23:45;;;;;;;44.05;19.05;;;;;;;;;;6247034;28;20013;-65
2022/03/21 01:26:45;;;;;;;41.38;19.65;;;;;;;;;;6247197;28;20515;-64
2022/03/21 01:29:46;;;;;;;50.85;19.98;;;;;;;;;;6245096;28;20032;-64
2022/03/21 01:32:46;;;;;;;46.83;20.75;;;;;;;;;;6246557;28;20103;-64
2022/03/21 01:35:46;;;;;;;56.67;22.90;;;;;;;;;;6247458;28;20389;-65
2022/03/21 01:38:47;;;;;;;47.63;23.00;;;;;;;;;;6246873;28;20370;-64
2022/03/21 01:41:47;;;;;;;42.70;19.48;;;;;;;;;;6243734;28;20021;-64
2022/03/21 01:44:51;;;;;;;46.85;21.60;;;;;;;;;;6246446;28;20196;-64
2022/03/21 01:47:51;;;;;;;40.00;20.42;;;;;;;;;;6246736;28;20020;-64
2022/03/21 01:50:52;;;;;;;40.95;18.55;;;;;;;;;;6246538;28;20013;-65
2022/03/21 01:57:11;;;;;;;47.72;19.20;;;;;;;;;;6248516;28;20119;-64
2022/03/21 02:00:12;;;;;;;38.90;18.88;;;;;;;;;;6267058;28;20496;-65
2022/03/21 02:03:14;;;;;;;50.28;20.02;;;;;;;;;;6246122;28;20412;-65
2022/03/21 02:06:14;;;;;;;32.88;13.55;;;;;;;;;;6246314;28;20560;-65
2022/03/21 02:09:14;;;;;;;50.00;18.80;;;;;;;;;;6235312;28;20021;-65
2022/03/21 02:12:15;;;;;;;44.78;19.55;;;;;;;;;;6241758;28;20025;-65
2022/03/21 02:15:15;;;;;;;39.75;20.02;;;;;;;;;;6246295;28;20025;-65
2022/03/21 02:18:17;;;;;;;44.22;19.55;;;;;;;;;;6245797;28;20018;-65
2022/03/21 02:21:27;;;;;;;39.35;17.77;;;;;;;;;;6245842;28;20025;-65
2022/03/21 02:24:36;;;;;;;48.40;20.63;;;;;;;;;;6235705;28;20026;-65
2022/03/21 02:27:37;;;;;;;41.03;17.83;;;;;;;;;;6245957;28;20071;-65
2022/03/21 02:30:39;;;;;;;45.88;20.05;;;;;;;;;;6241637;28;20393;-65
2022/03/21 02:33:39;;;;;;;46.58;18.65;;;;;;;;;;6245530;28;20485;-65
2022/03/21 02:36:40;;;;;;;40.08;18.73;;;;;;;;;;6245021;28;20027;-65
2022/03/21 02:39:42;;;;;;;45.30;18.58;;;;;;;;;;6245375;28;20017;-65
2022/03/21 02:42:43;;;;;;;47.83;20.95;;;;;;;;;;6242383;28;20021;-65
2022/03/21 02:45:43;;;;;;;45.28;20.55;;;;;;;;;;6245556;28;20017;-65
2022/03/21 02:48:44;;;;;;;37.08;16.45;;;;;;;;;;6244905;28;20022;-65
2022/03/21 02:51:45;;;;;;;35.15;16.70;;;;;;;;;;6244870;28;20025;-65
2022/03/21 02:54:45;;;;;;;35.40;17.33;;;;;;;;;;6244251;28;20505;-65
2022/03/21 02:57:45;;;;;;;33.53;15.57;;;;;;;;;;6263157;28;20016;-65
2022/03/21 03:00:46;;;;;;;48.35;17.58;;;;;;;;;;6249436;28;20052;-65
2022/03/21 03:03:46;;;;;;;36.15;17.17;;;;;;;;;;6244716;28;20173;-65
2022/03/21 03:06:47;;;;;;;32.90;16.42;;;;;;;;;;6244635;28;20109;-65
2022/03/21 03:09:47;;;;;;;45.22;20.42;;;;;;;;;;6237137;28;20036;-65
2022/03/21 03:12:47;;;;;;;39.28;18.65;;;;;;;;;;6219950;28;20026;-65
2022/03/21 03:15:47;;;;;;;38.05;18.15;;;;;;;;;;6220210;28;20022;-65
2022/03/21 03:18:48;;;;;;;41.50;19.27;;;;;;;;;;6223137;28;20426;-65
2022/03/21 03:21:49;;;;;;;38.88;17.48;;;;;;;;;;6243701;28;20028;-66
2022/03/21 03:24:50;;;;;;;37.05;18.00;;;;;;;;;;6244459;28;20637;-66
2022/03/21 03:27:50;;;;;;;43.78;20.27;;;;;;;;;;6244651;28;20021;-65
2022/03/21 03:30:51;;;;;;;41.50;18.73;;;;;;;;;;6240307;28;20381;-65
2022/03/21 03:33:51;;;;;;;38.13;17.92;;;;;;;;;;6235431;28;20108;-66
2022/03/21 03:36:52;;;;;;;43.10;21.33;;;;;;;;;;6225398;28;20022;-66
2022/03/21 03:39:52;;;;;;;46.55;18.75;;;;;;;;;;6244171;28;20057;-66
2022/03/21 03:42:52;;;;;;;46.35;20.23;;;;;;;;;;6241218;28;20025;-66
2022/03/21 03:45:54;;;;;;;43.45;20.20;;;;;;;;;;6243918;28;20096;-66
2022/03/21 03:48:55;;;;;;;;;;;;;;;;;;6244092;28;20100;-66
2022/03/21 03:51:55;;;;;;;40.72;21.50;;;;;;;;;;6226210;28;19931;-66
2022/03/21 03:54:55;;;;;;;39.45;18.42;;;;;;;;;;6243036;28;20057;-66
2022/03/21 03:57:55;;;;;;;38.28;20.02;;;;;;;;;;6253653;28;20075;-66
2022/03/21 04:00:56;;;;;;;44.33;18.73;;;;;;;;;;6243624;28;20097;-66
2022/03/21 04:03:59;;;;;;;43.40;20.00;;;;;;;;;;6243814;28;20419;-67
2022/03/21 04:06:59;;;;;;;45.63;21.08;;;;;;;;;;6243334;28;20017;-67
2022/03/21 04:10:00;;;;;;;51.10;22.45;;;;;;;;;;6227667;28;20455;-66
2022/03/21 04:13:00;;;;;;;44.00;19.85;;;;;;;;;;6243211;28;20068;-66
2022/03/21 04:16:00;;;;;;;56.75;24.27;;;;;;;;;;6243638;28;20025;-66
2022/03/21 04:19:02;;;;;;;49.38;20.52;;;;;;;;;;6241149;28;20372;-66
2022/03/21 04:22:02;;;;;;;50.40;20.80;;;;;;;;;;6231959;28;20485;-67
2022/03/21 04:25:07;;;;;;;54.80;23.70;;;;;;;;;;6218379;28;20017;-67
2022/03/21 04:28:09;;;;;;;65.85;25.38;;;;;;;;;;6238036;28;20087;-66
2022/03/21 04:31:09;;;;;;;55.60;25.42;;;;;;;;;;6241144;28;20497;-64
2022/03/21 04:34:10;;;;;;;54.25;22.25;;;;;;;;;;6242414;28;20425;-64
2022/03/21 04:37:10;;;;;;;51.10;23.10;;;;;;;;;;6242248;28;20025;-65
2022/03/21 04:40:11;;;;;;;50.13;22.70;;;;;;;;;;6242127;28;20131;-65
2022/03/21 04:43:13;;;;;;;45.38;22.33;;;;;;;;;;6235406;28;20385;-65
2022/03/21 04:46:13;;;;;;;45.95;20.83;;;;;;;;;;6242730;28;20045;-65
2022/03/21 04:49:14;;;;;;;45.38;19.40;;;;;;;;;;6243032;28;20354;-65
2022/03/21 04:52:14;;;;;;;40.00;19.58;;;;;;;;;;6241541;28;20022;-65
2022/03/21 04:55:15;;;;;;;41.90;20.73;;;;;;;;;;6242335;28;20057;-65
2022/03/21 04:58:16;;;;;;;48.65;23.40;;;;;;;;;;6264951;28;20017;-65
2022/03/21 05:01:16;;;;;;;51.15;21.75;;;;;;;;;;6255578;28;20021;-65
2022/03/21 05:04:17;;;;;;;43.58;21.05;;;;;;;;;;6242090;28;20165;-65
2022/03/21 05:07:18;;;;;;;48.38;20.65;;;;;;;;;;6242799;28;20017;-65
2022/03/21 05:10:19;;;;;;;46.45;20.33;;;;;;;;;;6226389;28;20021;-65
2022/03/21 05:13:19;;;;;;;39.83;18.85;;;;;;;;;;6242584;28;20029;-65
2022/03/21 05:16:20;;;;;;;41.22;18.48;;;;;;;;;;6242793;28;20028;-65
2022/03/21 05:19:20;;;;;;;47.58;19.90;;;;;;;;;;6242820;28;20021;-65
2022/03/21 05:22:20;;;;;;;51.20;20.60;;;;;;;;;;6241930;28;20477;-65
2022/03/21 05:31:59;;;;;;;43.40;19.48;;;;;;;;;;6240506;28;20033;-65
2022/03/21 05:38:18;;;;;;;45.85;20.95;;;;;;;;;;6242233;28;20037;-65
2022/03/21 05:41:19;;;;;;;48.97;21.70;;;;;;;;;;6237636;28;20508;-65
2022/03/21 05:44:19;;;;;;;46.17;22.42;;;;;;;;;;6234235;28;20014;-65
2022/03/21 05:47:20;;;;;;;49.33;23.40;;;;;;;;;;6246209;28;20066;-64
2022/03/21 05:50:20;;;;;;;38.13;23.17;;;;;;;;;;6246455;28;20014;-64
2022/03/21 05:53:20;;;;;;;44.75;22.65;;;;;;;;;;6245684;28;20600;-64
2022/03/21 05:56:21;;;;;;;42.95;21.05;;;;;;;;;;6248355;28;20491;-65
2022/03/21 06:02:40;;;;;;;39.97;19.98;;;;;;;;;;6237062;28;20033;-65
2022/03/21 06:05:40;;;;;;;36.55;19.27;;;;;;;;;;6246283;28;20024;-65
2022/03/21 06:08:41;;;;;;;42.38;20.73;;;;;;;;;;6238809;28;20049;-65
2022/03/21 06:11:42;;;;;;;41.80;21.50;;;;;;;;;;6237739;28;20029;-65
2022/03/21 06:14:42;;;;;;;42.40;22.20;;;;;;;;;;6245396;28;20033;-65
2022/03/21 06:17:43;;;;;;;36.88;22.95;;;;;;;;;;6246292;28;20104;-65
2022/03/21 06:20:44;;;;;;;39.97;23.60;;;;;;;;;;6245357;28;20025;-65
2022/03/21 06:23:46;;;;;;;38.08;22.25;;;;;;;;;;6245970;28;20017;-65
2022/03/21 06:26:46;;;;;;;42.88;21.70;;;;;;;;;;6245443;28;20025;-65
2022/03/21 06:29:47;;;;;;;41.53;21.23;;;;;;;;;;6241371;28;20065;-65
2022/03/21 06:32:47;;;;;;;40.40;21.48;;;;;;;;;;6224948;28;20052;-65
2022/03/21 06:35:48;;;;;;;40.20;22.48;;;;;;;;;;6233137;28;20099;-65
2022/03/21 06:38:48;;;;;;;32.53;21.15;;;;;;;;;;6219532;28;20029;-64
2022/03/21 06:41:51;;;;;;;36.58;20.75;;;;;;;;;;6221000;28;20060;-65
2022/03/21 06:44:52;;;;;;;40.15;20.50;;;;;;;;;;6235526;28;20071;-65
2022/03/21 06:47:53;;;;;;;38.72;21.90;;;;;;;;;;6234609;28;20029;-65
2022/03/21 06:50:55;;;;;;;36.63;19.85;;;;;;;;;;6244259;28;20095;-65
2022/03/21 06:53:55;;;;;;;;;;;;;;;;;;6244829;28;20067;-65
2022/03/21 06:56:56;;;;;;;39.13;20.23;;;;;;;;;;6252421;28;19909;-65
2022/03/21 06:59:56;;;;;;;36.63;20.08;;;;;;;;;;6228244;28;20524;-65
2022/03/21 07:02:56;;;;;;;36.30;19.65;;;;;;;;;;6228734;28;20343;-65
2022/03/21 07:05:56;;;;;;;32.47;17.70;;;;;;;;;;6240791;28;20021;-65
2022/03/21 07:08:57;;;;;;;32.65;18.20;;;;;;;;;;6242843;28;20100;-65
2022/03/21 07:11:57;;;;;;;41.45;20.08;;;;;;;;;;6243499;28;20021;-65
2022/03/21 07:14:57;;;;;;;34.90;18.58;;;;;;;;;;6242963;28;20018;-65
2022/03/21 07:17:58;;;;;;;40.60;17.48;;;;;;;;;;6234570;28;20071;-65
2022/03/21 07:20:58;;;;;;;32.85;17.27;;;;;;;;;;6240061;28;20017;-66
2022/03/21 07:23:59;;;;;;;37.38;19.17;;;;;;;;;;6239773;28;20216;-66
2022/03/21 07:26:59;;;;;;;32.45;17.48;;;;;;;;;;6231861;28;20493;-66
2022/03/21 07:29:59;;;;;;;38.00;18.13;;;;;;;;;;6238733;28;20022;-66
2022/03/21 07:33:00;;;;;;;27.60;16.40;;;;;;;;;;6239244;28;20049;-66
2022/03/21 07:36:00;;;;;;;31.77;17.88;;;;;;;;;;6239313;28;20484;-66
2022/03/21 07:39:00;;;;;;;31.93;16.07;;;;;;;;;;6218465;28;20578;-66
2022/03/21 07:42:02;;;;;;;25.65;14.80;;;;;;;;;;6230349;28;20276;-66
2022/03/21 07:48:21;;;;;;;29.92;15.75;;;;;;;;;;6231457;28;20049;-66
2022/03/21 07:51:21;;;;;;;27.17;15.15;;;;;;;;;;6236860;28;20078;-66
2022/03/21 07:54:21;;;;;;;27.08;15.40;;;;;;;;;;6234418;28;20056;-66
2022/03/21 07:57:23;;;;;;;25.13;14.63;;;;;;;;;;6227952;28;20022;-66
2022/03/21 08:00:25;;;;;;;22.55;13.60;;;;;;;;;;6232109;28;20291;-66
2022/03/21 08:03:26;;;;;;;22.65;12.73;;;;;;;;;;6235681;28;20045;-66
2022/03/21 08:06:27;;;;;;;20.70;11.55;;;;;;;;;;6236832;28;20028;-66
2022/03/21 08:09:30;;;;;;;23.75;12.75;;;;;;;;;;6237700;28;20017;-66
2022/03/21 08:12:30;;;;;;;25.38;14.02;;;;;;;;;;6237471;28;20013;-66
2022/03/21 08:15:32;;;;;;;18.95;11.00;;;;;;;;;;6240067;28;20025;-66
2022/03/21 08:18:32;;;;;;;23.95;12.68;;;;;;;;;;6238876;28;20028;-66
2022/03/21 08:21:33;;;;;;;21.67;10.73;;;;;;;;;;6237568;28;20021;-66
2022/03/21 08:24:36;;;;;;;20.77;11.25;;;;;;;;;;6231791;28;21025;-66
2022/03/21 08:27:36;;;;;;;21.88;10.73;;;;;;;;;;6234531;28;20017;-66
2022/03/21 08:30:37;;;;;;;15.33;9.13;;;;;;;;;;6236816;28;20021;-66
2022/03/21 08:33:37;;;;;;;18.38;9.20;;;;;;;;;;6234761;28;20620;-66
2022/03/21 08:36:37;;;;;;;13.57;7.70;;;;;;;;;;6235490;28;20065;-67
2022/03/21 08:39:37;;;;;;;18.02;8.45;;;;;;;;;;6222096;28;20716;-67
2022/03/21 08:42:39;;;;;;;13.50;7.57;;;;;;;;;;6229418;28;20722;-67
2022/03/21 08:45:40;;;;;;;16.30;8.13;;;;;;;;;;6230604;28;20014;-67
2022/03/21 08:52:01;;;;;;;16.45;8.90;;;;;;;;;;6225963;28;20034;-66
2022/03/21 08:55:04;;;;;;;14.80;8.65;;;;;;;;;;6223913;28;20042;-66
2022/03/21 08:58:05;;;;;;;17.30;8.07;;;;;;;;;;6222936;28;20025;-66
2022/03/21 09:01:05;;;;;;;21.10;8.55;;;;;;;;;;6205945;28;20105;-66
2022/03/21 09:04:05;;;;;;;14.90;8.90;;;;;;;;;;6204960;28;20032;-66
2022/03/21 09:07:08;;;;;;;14.80;7.80;;;;;;;;;;6227653;28;20080;-66
2022/03/21 09:10:10;;;;;;;;;;;;;;;;;;6232669;28;20034;-66
2022/03/21 09:13:10;;;;;;;14.52;8.40;;;;;;;;;;6237426;28;20379;-66
2022/03/21 09:16:11;;;;;;;15.63;8.07;;;;;;;;;;6235656;28;20021;-66
2022/03/21 09:19:11;;;;;;;15.23;10.00;;;;;;;;;;6244035;28;20536;-66
2022/03/21 09:22:12;;;;;;;13.48;8.02;;;;;;;;;;6238331;28;20122;-66
2022/03/21 09:25:12;;;;;;;13.65;7.80;;;;;;;;;;6232738;28;20021;-67
2022/03/21 09:28:12;;;;;;;15.35;8.55;;;;;;;;;;6239444;28;20360;-66
2022/03/21 09:31:13;;;;;;;14.10;7.53;;;;;;;;;;6238554;28;20037;-66
2022/03/21 09:34:13;;;;;;;16.58;8.50;;;;;;;;;;6241068;28;20099;-66
2022/03/21 09:37:14;;;;;;;14.23;8.80;;;;;;;;;;6232999;28;20022;-66
2022/03/21 09:40:17;;;;;;;15.98;8.45;;;;;;;;;;6234309;28;20049;-66
2022/03/21 09:43:17;;;;;;;16.55;8.98;;;;;;;;;;6236485;28;20053;-67
2022/03/21 09:46:17;;;;;;;18.55;8.07;;;;;;;;;;6239999;28;20090;-67
2022/03/21 09:49:18;;;;;;;18.20;8.55;;;;;;;;;;6235817;28;20017;-67
2022/03/21 09:52:19;;;;;;;15.35;7.03;;;;;;;;;;6230960;28;20384;-67
2022/03/21 09:55:19;;;;;;;13.90;6.77;;;;;;;;;;6238553;28;20505;-67
2022/03/21 09:58:20;;;;;;;12.55;7.20;;;;;;;;;;6237765;28;20132;-66
2022/03/21 10:01:20;;;;;;;11.32;7.57;;;;;;;;;;6230551;28;20584;-66
2022/03/21 10:04:21;;;;;;;14.50;7.57;;;;;;;;;;6242354;28;20025;-66
2022/03/21 10:07:25;;;;;;;14.15;8.45;;;;;;;;;;6243864;28;20021;-66
2022/03/21 10:10:25;;;;;;;9.10;5.45;;;;;;;;;;6237890;28;20013;-67
2022/03/21 10:13:27;;;;;;;14.82;7.80;;;;;;;;;;6240746;28;20104;-66
2022/03/21 10:16:27;;;;;;;11.65;7.03;;;;;;;;;;6241210;28;20037;-66
2022/03/21 10:19:39;;;;;;;13.23;7.78;;;;;;;;;;6235829;28;20443;-67
2022/03/21 10:22:43;;;;;;;11.30;6.53;;;;;;;;;;6239337;28;20397;-67
2022/03/21 10:25:44;;;;;;;11.93;5.80;;;;;;;;;;6244216;28;20028;-67
2022/03/21 10:28:44;;;;;;;12.82;6.88;;;;;;;;;;6238762;28;20033;-67
2022/03/21 10:31:46;;;;;;;12.90;7.35;;;;;;;;;;6238706;28;20481;-67
2022/03/21 10:34:58;;;;;;;14.80;7.53;;;;;;;;;;6239489;28;20021;-66
2022/03/21 10:38:00;;;;;;;11.98;6.65;;;;;;;;;;6242178;28;20076;-66
2022/03/21 10:41:07;;;;;;;14.25;6.90;;;;;;;;;;6240096;28;20069;-66
2022/03/21 10:44:08;;;;;;;11.85;6.70;;;;;;;;;;6233130;28;20014;-66
2022/03/21 10:47:09;;;;;;;12.63;6.65;;;;;;;;;;6236814;28;20028;-67
2022/03/21 10:50:09;;;;;;;11.13;7.77;;;;;;;;;;6230391;28;20028;-67
2022/03/21 10:53:19;;;;;;;13.25;6.45;;;;;;;;;;6231399;28;20049;-67
2022/03/21 10:56:20;;;;;;;10.73;6.20;;;;;;;;;;6226079;28;20530;-67
2022/03/21 10:59:20;;;;;;;10.90;6.10;;;;;;;;;;6234300;28;20022;-67
2022/03/21 11:02:20;;;;;;;9.73;5.10;;;;;;;;;;6238813;28;20099;-67
2022/03/21 11:05:22;;;;;;;13.03;7.37;;;;;;;;;;6243394;28;20014;-67
2022/03/21 11:08:22;;;;;;;9.88;5.60;;;;;;;;;;6236086;28;20033;-67
2022/03/21 11:11:23;;;;;;;8.82;4.97;;;;;;;;;;6244937;28;20064;-67
2022/03/21 11:14:23;;;;;;;9.37;5.73;;;;;;;;;;6243579;28;20025;-67
2022/03/21 11:17:24;;;;;;;15.45;7.00;;;;;;;;;;6244845;28;20392;-67
2022/03/21 11:20:25;;;;;;;11.38;6.65;;;;;;;;;;6244246;28;20032;-67
2022/03/21 11:23:26;;;;;;;12.32;6.30;;;;;;;;;;6242047;28;20056;-67
2022/03/21 11:26:38;;;;;;;11.85;6.22;;;;;;;;;;6243159;28;20090;-67
2022/03/21 11:29:38;;;;;;;12.15;7.00;;;;;;;;;;6239103;28;20021;-67
2022/03/21 11:33:01;;;;;;;15.80;7.10;;;;;;;;;;6238942;28;20083;-67
2022/03/21 11:36:12;;;;;;;10.75;5.70;;;;;;;;;;6231616;28;20729;-67
2022/03/21 11:39:12;;;;;;;12.73;6.72;;;;;;;;;;6229957;28;20092;-67
2022/03/21 11:42:22;;;;;;;12.27;5.80;;;;;;;;;;6220382;28;20029;-67
2022/03/21 11:45:33;;;;;;;8.93;5.03;;;;;;;;;;6241624;28;20025;-67
2022/03/21 11:48:33;;;;;;;8.68;4.80;;;;;;;;;;6244212;28;20591;-67
2022/03/21 11:51:35;;;;;;;9.87;4.97;;;;;;;;;;6241546;28;20128;-67
2022/03/21 11:54:39;;;;;;;10.00;5.47;;;;;;;;;;6234809;28;20121;-66
2022/03/21 11:57:39;;;;;;;9.77;5.40;;;;;;;;;;6260104;28;20031;-67
2022/03/21 12:00:59;;;;;;;15.47;6.83;;;;;;;;;;6261403;28;20021;-67
2022/03/21 12:04:18;;;;;;;9.48;5.35;;;;;;;;;;6227752;28;20033;-67
2022/03/21 12:07:18;;;;;;;10.65;5.90;;;;;;;;;;6219232;28;20030;-67
2022/03/21 12:10:38;;;;;;;17.40;5.63;;;;;;;;;;6222391;28;20060;-67
2022/03/21 12:13:41;;;;;;;11.27;5.70;;;;;;;;;;6217765;28;20635;-67
2022/03/21 12:16:41;;;;;;;9.75;4.93;;;;;;;;;;6218093;28;20022;-67
2022/03/21 12:20:03;;;;;;;11.02;5.85;;;;;;;;;;6218892;28;20076;-67
2022/03/21 12:23:17;;;;;;;14.00;6.72;;;;;;;;;;6218340;28;20033;-67
2022/03/21 12:26:32;;;;;;;8.52;4.97;;;;;;;;;;6217870;28;20156;-67
2022/03/21 12:29:32;;;;;;;11.07;5.65;;;;;;;;;;6223887;28;20010;-66
2022/03/21 12:32:32;;;;;;;10.53;5.57;;;;;;;;;;6231138;28;20159;-66
2022/03/21 12:35:39;;;;;;;12.30;6.07;;;;;;;;;;6231777;28;20087;-66
2022/03/21 12:38:40;;;;;;;12.70;6.18;;;;;;;;;;6213098;28;20030;-66
2022/03/21 12:41:40;;;;;;;15.43;6.33;;;;;;;;;;6229191;28;20481;-66
2022/03/21 12:44:40;;;;;;;11.32;6.28;;;;;;;;;;6238250;28;20477;-66
2022/03/21 12:47:41;;;;;;;11.57;6.13;;;;;;;;;;6238426;28;20539;-66
2022/03/21 12:50:41;;;;;;;14.40;6.20;;;;;;;;;;6220301;28;20101;-66
2022/03/21 12:53:45;;;;;;;15.32;7.60;;;;;;;;;;6221683;28;20046;-66
2022/03/21 12:56:46;;;;;;;17.27;7.25;;;;;;;;;;6226693;28;20481;-66
2022/03/21 12:59:46;;;;;;;13.17;7.40;;;;;;;;;;6241727;28;20022;-66
2022/03/21 13:02:47;;;;;;;16.17;7.20;;;;;;;;;;6238204;28;20119;-66
2022/03/21 13:12:30;;;;;;;14.75;8.43;;;;;;;;;;6239769;28;20029;-66
2022/03/21 13:15:33;;;;;;;13.37;7.63;;;;;;;;;;6228247;28;20154;-66
2022/03/21 13:18:40;;;;;;;13.70;8.60;;;;;;;;;;6205940;28;20026;-66
2022/03/21 13:21:40;;;;;;;15.45;7.85;;;;;;;;;;6222095;28;20021;-66
2022/03/21 13:24:42;;;;;;;15.60;8.63;;;;;;;;;;6227049;28;20049;-66
2022/03/21 13:27:42;;;;;;;16.02;7.68;;;;;;;;;;6246793;28;20026;-66
2022/03/21 13:31:02;;;;;;;14.43;8.23;;;;;;;;;;6227941;28;20029;-66
2022/03/21 13:34:10;;;;;;;16.65;7.50;;;;;;;;;;6232640;28;20107;-67
2022/03/21 13:37:13;;;;;;;14.50;7.80;;;;;;;;;;6241894;28;20542;-67
2022/03/21 13:40:14;;;;;;;12.20;6.85;;;;;;;;;;6239605;28;20373;-67
2022/03/21 13:43:18;;;;;;;14.53;7.63;;;;;;;;;;6238578;28;20009;-67
2022/03/21 13:46:22;;;;;;;13.48;7.82;;;;;;;;;;6230909;28;20070;-67
2022/03/21 13:49:39;;;;;;;16.02;8.57;;;;;;;;;;6221366;28;20076;-67
2022/03/21 13:52:43;;;;;;;12.98;7.78;;;;;;;;;;6221774;28;20355;-67
2022/03/21 13:55:48;;;;;;;16.05;7.40;;;;;;;;;;6247502;28;20022;-67
2022/03/21 13:58:48;;;;;;;18.30;9.18;;;;;;;;;;6240668;28;20501;-67
2022/03/21 14:01:49;;;;;;;16.00;9.07;;;;;;;;;;6244763;28;20014;-67
2022/03/21 14:04:51;;;;;;;16.23;9.70;;;;;;;;;;6244536;28;20382;-67
2022/03/21 14:08:07;;;;;;;13.93;8.88;;;;;;;;;;6233904;28;20021;-67
2022/03/21 14:11:08;;;;;;;12.52;8.23;;;;;;;;;;6245118;28;20017;-67
2022/03/21 14:14:11;;;;;;;16.02;9.60;;;;;;;;;;6240203;28;20411;-67
2022/03/21 14:17:11;;;;;;;14.70;8.65;;;;;;;;;;6242621;28;20017;-67
2022/03/21 14:20:12;;;;;;;13.47;7.83;;;;;;;;;;6239495;28;20096;-67
2022/03/21 14:23:12;;;;;;;16.47;8.43;;;;;;;;;;6240556;28;20067;-67
2022/03/21 14:26:30;;;;;;;14.23;7.93;;;;;;;;;;6240479;28;20060;-67
2022/03/21 14:29:31;;;;;;;14.02;8.85;;;;;;;;;;6233105;28;20487;-67
2022/03/21 14:32:31;;;;;;;15.03;8.57;;;;;;;;;;6241147;28;20026;-67
2022/03/21 14:35:31;;;;;;;16.33;10.17;;;;;;;;;;6220793;28;20508;-67
2022/03/21 14:38:32;;;;;;;14.00;9.03;;;;;;;;;;6222473;28;20095;-67
2022/03/21 14:41:32;;;;;;;13.52;8.63;;;;;;;;;;6236785;28;20481;-67
2022/03/21 14:44:33;;;;;;;14.37;9.20;;;;;;;;;;6242388;28;20025;-67
2022/03/21 14:47:33;;;;;;;15.03;9.90;;;;;;;;;;6237716;28;20021;-67
2022/03/21 14:50:34;;;;;;;18.27;10.20;;;;;;;;;;6228082;28;20014;-67
2022/03/21 14:53:34;;;;;;;16.20;10.27;;;;;;;;;;6237748;28;20037;-67
2022/03/21 14:56:35;;;;;;;15.63;10.52;;;;;;;;;;6233779;28;20017;-67
2022/03/21 14:59:35;;;;;;;18.93;11.77;;;;;;;;;;6223618;28;20146;-68
2022/03/21 15:02:35;;;;;;;15.50;10.53;;;;;;;;;;6239172;28;20022;-67
2022/03/21 15:05:36;;;;;;;19.77;12.53;;;;;;;;;;6240510;28;20010;-67
2022/03/21 15:08:36;;;;;;;17.93;10.90;;;;;;;;;;6235944;28;20355;-67
2022/03/21 15:11:37;;;;;;;19.60;11.57;;;;;;;;;;6235407;28;20025;-67
2022/03/21 15:14:37;;;;;;;19.70;12.73;;;;;;;;;;6219962;28;20440;-67
2022/03/21 15:17:38;;;;;;;19.63;11.67;;;;;;;;;;6224243;28;20489;-67
2022/03/21 15:20:38;;;;;;;18.20;11.17;;;;;;;;;;6223976;28;20026;-67
2022/03/21 15:23:40;;;;;;;20.00;12.17;;;;;;;;;;6229972;28;20496;-67
2022/03/21 15:26:40;;;;;;;21.52;12.63;;;;;;;;;;6239089;28;20093;-67
2022/03/21 15:29:41;;;;;;;20.57;13.10;;;;;;;;;;6243766;28;20022;-67
2022/03/21 15:32:42;;;;;;;24.83;13.90;;;;;;;;;;6241200;28;20013;-67
2022/03/21 15:35:42;;;;;;;24.60;12.93;;;;;;;;;;6243443;28;20106;-67
2022/03/21 15:42:21;;;;;;;20.15;12.60;;;;;;;;;;6165911;28;20101;-67
2022/03/21 15:45:21;;;;;;;19.00;12.97;;;;;;;;;;6168608;28;20029;-67
2022/03/21 15:48:24;;;;;;;18.27;11.37;;;;;;;;;;6238688;28;20035;-67
2022/03/21 15:51:25;;;;;;;19.58;12.32;;;;;;;;;;6242075;28;20021;-67
2022/03/21 15:54:25;;;;;;;17.30;11.57;;;;;;;;;;6234612;28;20099;-67
2022/03/21 15:57:25;;;;;;;19.70;12.53;;;;;;;;;;6257055;28;20368;-67
2022/03/21 16:00:27;;;;;;;23.20;12.63;;;;;;;;;;6261582;28;20389;-67
2022/03/21 16:03:28;;;;;;;18.27;11.43;;;;;;;;;;6224615;28;20021;-67
2022/03/21 16:06:28;;;;;;;17.00;10.07;;;;;;;;;;6242176;28;20554;-67
2022/03/21 16:09:28;;;;;;;21.63;10.57;;;;;;;;;;6221283;28;20028;-67
2022/03/21 16:12:29;;;;;;;18.17;9.73;;;;;;;;;;6236498;28;20404;-67
2022/03/21 16:15:29;;;;;;;20.13;13.20;;;;;;;;;;6239193;28;20009;-67
2022/03/21 16:18:30;;;;;;;19.53;10.67;;;;;;;;;;6240116;28;20037;-67
2022/03/21 16:21:30;;;;;;;16.23;10.00;;;;;;;;;;6233297;28;20018;-67
2022/03/21 16:24:31;;;;;;;17.83;9.70;;;;;;;;;;6224357;28;20294;-67
2022/03/21 16:27:31;;;;;;;18.07;10.97;;;;;;;;;;6233716;28;20010;-67
2022/03/21 16:30:32;;;;;;;18.90;10.67;;;;;;;;;;6242258;28;20591;-67
2022/03/21 16:33:35;;;;;;;19.93;9.70;;;;;;;;;;6239944;28;20445;-67
2022/03/21 16:36:35;;;;;;;19.45;9.77;;;;;;;;;;6238677;28;20261;-67
2022/03/21 16:39:35;;;;;;;22.07;10.40;;;;;;;;;;6243441;28;20423;-67
2022/03/21 16:42:36;;;;;;;18.00;10.52;;;;;;;;;;6230775;28;20022;-67
2022/03/21 16:45:37;;;;;;;22.90;11.50;;;;;;;;;;6220313;28;20544;-67
2022/03/21 16:48:38;;;;;;;22.02;10.60;;;;;;;;;;6218825;28;20014;-67
2022/03/21 16:51:38;;;;;;;16.73;9.82;;;;;;;;;;6225016;28;20091;-67
2022/03/21 16:54:39;;;;;;;20.38;11.35;;;;;;;;;;6229967;28;20153;-67
2022/03/21 16:57:39;;;;;;;23.23;12.18;;;;;;;;;;6238373;28;20028;-67
2022/03/21 17:00:41;;;;;;;20.63;10.20;;;;;;;;;;6239186;28;20024;-67
2022/03/21 17:03:45;;;;;;;24.00;10.98;;;;;;;;;;6239170;28;20045;-67
2022/03/21 17:06:46;;;;;;;21.45;12.27;;;;;;;;;;6239781;28;20083;-67
2022/03/21 17:09:46;;;;;;;23.55;11.98;;;;;;;;;;6237719;28;20026;-67
2022/03/21 17:12:47;;;;;;;18.85;9.88;;;;;;;;;;6234898;28;20021;-67
2022/03/21 17:15:48;;;;;;;22.05;11.70;;;;;;;;;;6223811;28;20109;-67
2022/03/21 17:25:08;;;;;;;23.23;12.25;;;;;;;;;;6236844;28;20041;-67
2022/03/21 17:28:08;;;;;;;23.97;11.23;;;;;;;;;;6225897;28;20018;-67
2022/03/21 17:31:09;;;;;;;22.85;12.65;;;;;;;;;;6221698;28;20029;-67
2022/03/21 17:34:09;;;;;;;34.35;14.52;;;;;;;;;;6223753;28;20104;-67
2022/03/21 17:37:09;;;;;;;27.48;14.10;;;;;;;;;;6214756;28;20049;-67
2022/03/21 17:40:10;;;;;;;26.00;15.48;;;;;;;;;;6219544;28;20110;-67
2022/03/21 17:43:11;;;;;;;25.83;14.50;;;;;;;;;;6227009;28;20026;-66
2022/03/21 17:46:12;;;;;;;37.28;16.40;;;;;;;;;;6226540;28;20018;-66
2022/03/21 17:49:12;;;;;;;31.00;15.40;;;;;;;;;;6228197;28;20018;-66
2022/03/21 17:52:12;;;;;;;34.30;16.55;;;;;;;;;;6220072;28;20029;-66
2022/03/21 17:55:14;;;;;;;39.63;18.80;;;;;;;;;;6218082;28;20901;-66
2022/03/21 17:58:14;;;;;;;41.67;18.90;;;;;;;;;;6217884;28;20030;-66
2022/03/21 18:01:14;;;;;;;31.60;17.35;;;;;;;;;;6218433;28;20101;-66
2022/03/21 18:04:14;;;;;;;37.30;18.77;;;;;;;;;;6218013;28;20022;-67
2022/03/21 18:07:15;;;;;;;28.98;16.48;;;;;;;;;;6222339;28;20022;-66
2022/03/21 18:10:15;;;;;;;30.27;15.60;;;;;;;;;;6225856;28;20017;-66
2022/03/21 18:13:17;;;;;;;34.83;15.43;;;;;;;;;;6223481;28;20453;-66
2022/03/21 18:16:19;;;;;;;33.85;16.75;;;;;;;;;;6227163;28;20454;-66
2022/03/21 18:22:22;;;;;;;26.42;13.55;;;;;;;;;;6219707;28;20033;-66
2022/03/21 18:25:23;;;;;;;33.42;19.13;;;;;;;;;;6234013;28;20544;-67
2022/03/21 18:28:23;;;;;;;35.28;18.10;;;;;;;;;;6243904;28;20525;-66